Time;durP1;ratioP1;P1;durP2;ratioP2;P2;SDS_P1;SDS_P2;PMS_P1;PMS_P2;Temp;Humidity;BMP_temperature;BMP_pressure;BME280_temperature;BME280_humidity;BME280_pressure;Samples;Min_cycle;Max_cycle;Signal;HPM_P1;HPM_P2
2021/12/15 00:00:49;;;;;;;67.45;33.75;;;;;;;8.40;100.00;102832.59;6218571;23;20337;-63
2021/12/15 00:03:16;;;;;;;69.95;34.20;;;;;;;8.33;100.00;102838.47;6219111;23;20005;-63
2021/12/15 00:05:41;;;;;;;67.97;34.38;;;;;;;8.38;100.00;102840.38;6219537;23;20083;-63
2021/12/15 00:08:11;;;;;;;71.50;34.40;;;;;;;8.31;100.00;102841.00;6219400;23;20095;-63
2021/12/15 00:10:37;;;;;;;70.28;34.22;;;;;;;8.33;100.00;102833.25;6218682;23;20008;-63
2021/12/15 00:13:02;;;;;;;70.22;34.40;;;;;;;8.32;100.00;102832.38;6218864;23;20099;-63
2021/12/15 00:15:28;;;;;;;71.70;34.72;;;;;;;8.41;100.00;102821.31;6218720;23;20004;-62
2021/12/15 00:17:55;;;;;;;72.00;34.03;;;;;;;8.33;100.00;102826.31;6219289;23;20012;-63
2021/12/15 00:20:21;;;;;;;68.97;34.03;;;;;;;8.33;100.00;102821.09;6219175;23;20009;-63
2021/12/15 00:22:52;;;;;;;72.05;33.45;;;;;;;8.36;100.00;102826.41;6219062;23;20047;-63
2021/12/15 00:25:18;;;;;;;66.70;32.53;;;;;;;8.39;100.00;102817.78;6218940;23;20096;-61
2021/12/15 00:27:43;;;;;;;72.60;33.25;;;;;;;8.35;100.00;102824.63;6218728;23;20008;-62
2021/12/15 00:30:10;;;;;;;67.10;33.58;;;;;;;8.41;100.00;102818.72;6217625;23;20373;-61
2021/12/15 00:32:35;;;;;;;71.22;33.58;;;;;;;8.40;100.00;102819.56;6218700;23;20071;-61
2021/12/15 00:35:02;;;;;;;67.80;33.60;;;;;;;8.38;100.00;102816.91;6218695;23;20044;-61
2021/12/15 00:37:28;;;;;;;66.70;32.95;;;;;;;8.38;100.00;102810.81;6217220;23;20070;-61
2021/12/15 00:39:53;;;;;;;69.47;32.75;;;;;;;8.42;100.00;102817.00;6218781;23;20013;-61
2021/12/15 00:42:20;;;;;;;66.28;33.88;;;;;;;8.37;100.00;102820.34;6218857;23;20012;-63
2021/12/15 00:44:45;;;;;;;69.50;32.97;;;;;;;8.38;100.00;102823.84;6218723;23;20062;-61
2021/12/15 00:47:11;;;;;;;69.20;33.85;;;;;;;8.39;100.00;102817.78;6218529;23;20323;-61
2021/12/15 00:49:38;;;;;;;66.10;32.70;;;;;;;8.39;100.00;102828.22;6218873;23;20044;-61
2021/12/15 00:52:05;;;;;;;67.68;33.28;;;;;;;8.37;100.00;102820.34;6218569;23;20015;-61
2021/12/15 00:54:30;;;;;;;68.93;33.03;;;;;;;8.40;100.00;102819.56;6218625;23;20011;-61
2021/12/15 00:56:55;;;;;;;66.70;32.35;;;;;;;8.40;100.00;102814.34;6216869;23;20032;-62
2021/12/15 00:59:22;;;;;;;65.60;33.05;;;;;;;8.39;100.00;102815.19;6218574;23;20019;-61
2021/12/15 01:01:48;;;;;;;68.03;32.72;;;;;;;8.41;100.00;102810.00;6218739;23;20059;-61
2021/12/15 01:04:17;;;;;;;67.65;32.90;;;;;;;8.37;100.00;102811.63;6218368;23;20008;-61
2021/12/15 01:06:46;;;;;;;69.22;32.85;;;;;;;8.39;100.00;102815.19;6218826;23;20328;-61
2021/12/15 01:09:17;;;;;;;65.53;32.70;;;;;;;8.41;100.00;102816.09;6218170;23;20019;-61
2021/12/15 01:11:52;;;;;;;67.33;32.33;;;;;;;8.42;100.00;102822.22;6217862;23;20348;-61
2021/12/15 01:14:36;;;;;;;67.13;31.25;;;;;;;8.42;100.00;102832.66;6218658;23;20004;-61
2021/12/15 01:19:53;;;;;;;65.15;31.33;;;;;;;8.42;100.00;102825.69;6218267;23;20027;-61
2021/12/15 01:22:29;;;;;;;64.55;31.50;;;;;;;8.43;100.00;102829.19;6217937;23;20402;-60
2021/12/15 01:24:59;;;;;;;66.22;31.73;;;;;;;8.44;100.00;102826.63;6218321;23;20406;-61
2021/12/15 01:27:25;;;;;;;65.40;31.98;;;;;;;8.39;100.00;102825.63;6218191;23;20004;-61
2021/12/15 01:29:50;;;;;;;68.88;32.28;;;;;;;8.40;100.00;102839.53;6218121;23;20011;-61
2021/12/15 01:32:16;;;;;;;70.82;32.47;;;;;;;8.40;100.00;102832.59;6218356;23;20306;-61
2021/12/15 01:34:42;;;;;;;67.40;32.15;;;;;;;8.49;100.00;102825.00;6217937;23;20313;-61
2021/12/15 01:37:07;;;;;;;69.65;32.83;;;;;;;8.48;100.00;102831.09;6218235;23;20001;-61
2021/12/15 01:39:33;;;;;;;67.05;31.10;;;;;;;8.43;100.00;102824.88;6218333;23;20015;-61
2021/12/15 01:41:58;;;;;;;67.95;32.25;;;;;;;8.43;100.00;102819.66;6217615;23;20016;-61
2021/12/15 01:49:26;;;;;;;64.80;31.75;;;;;;;8.43;100.00;102831.81;6218293;23;20008;-61
2021/12/15 01:51:51;;;;;;;69.63;33.33;;;;;;;8.38;100.00;102826.44;6218416;23;20009;-61
2021/12/15 01:54:19;;;;;;;71.80;32.92;;;;;;;8.35;100.00;102832.47;6218049;23;20024;-61
2021/12/15 01:56:45;;;;;;;72.18;34.45;;;;;;;8.38;100.00;102835.16;6217886;23;20009;-61
2021/12/15 01:59:12;;;;;;;73.70;33.00;;;;;;;8.38;100.00;102836.88;6217589;23;20011;-61
2021/12/15 02:01:37;;;;;;;74.60;34.47;;;;;;;8.37;100.00;102837.72;6218145;23;20026;-62
2021/12/15 02:04:03;;;;;;;71.22;31.92;;;;;;;8.37;100.00;102842.94;6218049;23;20453;-61
2021/12/15 02:06:29;;;;;;;73.40;32.92;;;;;;;8.33;100.00;102833.25;6218176;23;20066;-61
2021/12/15 02:08:54;;;;;;;73.40;34.17;;;;;;;8.37;100.00;102837.72;6217831;23;20005;-61
2021/12/15 02:11:20;;;;;;;76.15;33.20;;;;;;;8.39;100.00;102849.09;6217899;23;20342;-61
2021/12/15 02:13:46;;;;;;;71.03;32.30;;;;;;;8.45;100.00;102854.50;6217770;23;20067;-62
2021/12/15 02:16:12;;;;;;;77.93;33.30;;;;;;;8.37;100.00;102856.88;6217473;23;20322;-64
2021/12/15 02:18:45;;;;;;;71.97;33.17;;;;;;;8.37;100.00;102853.38;6217851;23;20015;-61
2021/12/15 02:21:22;;;;;;;74.40;32.92;;;;;;;8.37;100.00;102856.00;6217808;23;20112;-62
2021/12/15 02:23:53;;;;;;;72.45;33.72;;;;;;;8.37;100.00;102856.00;6217805;23;20011;-62
2021/12/15 02:26:22;;;;;;;77.75;33.40;;;;;;;8.38;100.00;102857.75;6217746;23;20015;-62
2021/12/15 02:28:54;;;;;;;78.22;33.03;;;;;;;8.40;100.00;102849.97;6217446;23;20267;-62
2021/12/15 02:31:40;;;;;;;73.25;32.28;;;;;;;8.42;100.00;102859.63;6218051;23;20004;-62
2021/12/15 02:34:31;;;;;;;72.68;32.95;;;;;;;8.43;100.00;102853.56;6217954;23;20075;-62
2021/12/15 02:37:17;;;;;;;72.15;32.90;;;;;;;8.40;100.00;102853.47;6217828;23;20445;-62
2021/12/15 02:39:53;;;;;;;72.25;32.58;;;;;;;8.32;100.00;102834.09;6217345;23;20004;-62
2021/12/15 02:42:21;;;;;;;74.93;33.15;;;;;;;8.40;100.00;102850.88;6217990;23;20070;-62
2021/12/15 02:44:46;;;;;;;74.38;32.70;;;;;;;8.38;100.00;102848.22;6217585;23;20012;-62
2021/12/15 02:47:18;;;;;;;68.38;29.77;;;;;;;8.49;100.00;102853.72;6217580;23;20009;-62
2021/12/15 02:49:44;;;;;;;74.47;32.95;;;;;;;8.43;100.00;102852.69;6219001;23;20004;-62
2021/12/15 02:52:10;;;;;;;75.70;33.22;;;;;;;8.41;100.00;102847.41;6217168;23;20410;-62
2021/12/15 02:54:36;;;;;;;71.38;32.10;;;;;;;8.41;100.00;102857.84;6217122;23;20421;-62
2021/12/15 02:57:10;;;;;;;72.05;31.55;;;;;;;8.38;100.00;102847.31;6217593;23;20009;-62
2021/12/15 02:59:50;;;;;;;74.07;31.85;;;;;;;8.38;100.00;102850.81;6217618;23;20011;-62
2021/12/15 03:03:02;;;;;;;70.63;31.75;;;;;;;8.41;100.00;102855.25;6216990;23;20038;-62
2021/12/15 03:05:26;;;;;;;74.03;32.25;;;;;;;8.38;100.00;102843.00;6216977;23;20009;-62
2021/12/15 03:15:51;;;;;;;66.22;29.75;;;;;;;8.48;100.00;102844.16;6219465;23;20019;-61
2021/12/15 03:18:20;;;;;;;75.00;32.70;;;;;;;8.40;100.00;102836.94;6219486;23;20009;-62
2021/12/15 03:20:57;;;;;;;77.25;32.10;;;;;;;8.41;100.00;102844.81;6219651;23;20009;-62
2021/12/15 03:23:26;;;;;;;66.93;31.15;;;;;;;8.45;100.00;102843.16;6219851;23;20044;-62
2021/12/15 03:25:53;;;;;;;70.88;31.05;;;;;;;8.47;100.00;102838.88;6219493;23;20013;-62
2021/12/15 03:34:10;;;;;;;68.80;30.58;;;;;;;8.40;100.00;102836.94;6219100;23;20027;-62
2021/12/15 03:39:25;;;;;;;71.55;31.45;;;;;;;8.41;100.00;102842.19;6219577;23;20008;-62
2021/12/15 03:41:58;;;;;;;74.43;32.35;;;;;;;8.41;100.00;102855.25;6219134;23;20352;-62
2021/12/15 03:44:25;;;;;;;68.47;30.45;;;;;;;8.43;100.00;102842.25;6219290;23;20028;-62
2021/12/15 03:46:50;;;;;;;71.50;31.33;;;;;;;8.42;100.00;102843.97;6219470;23;20015;-62
2021/12/15 03:49:16;;;;;;;67.45;29.33;;;;;;;8.43;100.00;102850.94;6219712;23;20293;-62
2021/12/15 03:51:41;;;;;;;64.88;29.15;;;;;;;8.43;100.00;102853.56;6219194;23;20039;-62
2021/12/15 03:54:07;;;;;;;67.30;29.90;;;;;;;8.49;100.00;102845.88;6219032;23;20009;-62
2021/12/15 03:56:36;;;;;;;68.32;29.42;;;;;;;8.45;100.00;102854.50;6218944;23;20036;-62
2021/12/15 03:59:03;;;;;;;64.25;29.17;;;;;;;8.50;100.00;102849.38;6219152;23;20028;-62
2021/12/15 04:01:28;;;;;;;61.78;27.65;;;;;;;8.48;100.00;102851.97;6219101;23;20012;-62
2021/12/15 04:03:55;;;;;;;62.22;28.30;;;;;;;8.56;100.00;102846.94;6219091;23;20000;-62
2021/12/15 04:06:31;;;;;;;64.97;27.92;;;;;;;8.52;100.00;102855.53;6218708;23;20473;-62
2021/12/15 04:08:57;;;;;;;66.97;29.13;;;;;;;8.46;100.00;102861.47;6218971;23;20012;-62
2021/12/15 04:11:24;;;;;;;65.40;29.42;;;;;;;8.45;100.00;102867.53;6219056;23;20054;-62
2021/12/15 04:13:51;;;;;;;60.55;28.00;;;;;;;8.44;100.00;102857.06;6218718;23;20083;-62
2021/12/15 04:18:58;;;;;;;64.47;27.85;;;;;;;8.47;100.00;102860.63;6229139;23;20012;-62
2021/12/15 04:21:23;;;;;;;58.10;28.40;;;;;;;8.45;100.00;102859.72;6218279;23;20425;-62
2021/12/15 04:23:50;;;;;;;59.15;27.08;;;;;;;8.50;100.00;102860.69;6218549;23;20008;-62
2021/12/15 04:26:16;;;;;;;63.45;28.30;;;;;;;8.48;100.00;102864.13;6218976;23;20009;-62
2021/12/15 04:28:42;;;;;;;63.83;28.85;;;;;;;8.45;100.00;102864.94;6218931;23;20176;-62
2021/12/15 04:31:10;;;;;;;63.13;27.75;;;;;;;8.44;100.00;102867.50;6218741;23;20020;-62
2021/12/15 04:33:55;;;;;;;61.40;27.83;;;;;;;8.46;100.00;102879.75;6219246;23;20099;-61
2021/12/15 04:36:23;;;;;;;60.25;28.08;;;;;;;8.45;100.00;102877.09;6218779;23;20036;-62
2021/12/15 04:38:51;;;;;;;63.60;28.20;;;;;;;8.45;100.00;102872.75;6218885;23;20442;-62
2021/12/15 04:41:19;;;;;;;60.00;28.02;;;;;;;8.46;100.00;102879.75;6218628;23;20829;-62
2021/12/15 04:43:55;;;;;;;59.00;27.80;;;;;;;8.48;100.00;102880.66;6218786;23;20030;-62
2021/12/15 04:46:20;;;;;;;65.35;29.02;;;;;;;8.46;100.00;102876.25;6218696;23;20008;-63
2021/12/15 04:48:46;;;;;;;61.45;28.08;;;;;;;8.45;100.00;102880.59;6218648;23;20036;-61
2021/12/15 04:51:11;;;;;;;56.65;27.23;;;;;;;8.49;100.00;102878.91;6219078;23;20039;-62
2021/12/15 04:53:37;;;;;;;58.08;26.77;;;;;;;8.49;100.00;102892.84;6218971;23;20035;-61
2021/12/15 04:56:05;;;;;;;58.90;25.58;;;;;;;8.49;100.00;102887.63;6218874;23;20008;-62
2021/12/15 04:58:30;;;;;;;58.38;26.35;;;;;;;8.50;100.00;102892.00;6218804;23;20016;-62
2021/12/15 05:01:01;;;;;;;59.03;26.52;;;;;;;8.49;100.00;102890.25;6218575;23;20005;-63
2021/12/15 05:03:27;;;;;;;57.42;26.85;;;;;;;8.47;100.00;102886.72;6218982;23;20016;-62
2021/12/15 05:05:52;;;;;;;57.25;27.05;;;;;;;8.48;100.00;102892.84;6218916;23;20013;-62
2021/12/15 05:08:18;;;;;;;53.55;25.02;;;;;;;8.49;100.00;102897.19;6219113;23;20085;-62
2021/12/15 05:10:44;;;;;;;59.85;26.40;;;;;;;8.49;100.00;102895.47;6218540;23;20012;-62
2021/12/15 05:13:11;;;;;;;58.15;26.02;;;;;;;8.46;100.00;102899.72;6218498;23;20013;-62
2021/12/15 05:15:37;;;;;;;55.38;24.85;;;;;;;8.48;100.00;102893.72;6218296;23;20072;-63
2021/12/15 05:18:04;;;;;;;54.60;25.48;;;;;;;8.48;100.00;102898.06;6218624;23;20095;-62
2021/12/15 05:20:29;;;;;;;59.22;25.65;;;;;;;8.44;100.00;102896.19;6218891;23;20004;-62
2021/12/15 05:22:55;;;;;;;55.03;26.77;;;;;;;8.48;100.00;102898.94;6218428;23;20387;-62
2021/12/15 05:25:21;;;;;;;54.42;25.05;;;;;;;8.46;100.00;102900.63;6218024;23;20001;-60
2021/12/15 05:27:47;;;;;;;54.28;25.88;;;;;;;8.48;100.00;102903.28;6218300;23;20028;-63
2021/12/15 05:30:15;;;;;;;55.90;26.55;;;;;;;8.44;100.00;102897.06;6218215;23;20008;-63
2021/12/15 05:32:40;;;;;;;55.90;26.55;;;;;;;8.45;100.00;102897.97;6218097;23;20428;-62
2021/12/15 05:35:09;;;;;;;54.42;25.63;;;;;;;8.56;100.00;102904.34;6218562;23;20008;-62
2021/12/15 05:37:35;;;;;;;56.40;25.10;;;;;;;8.48;100.00;102905.88;6218174;23;20012;-62
2021/12/15 05:40:00;;;;;;;55.22;25.40;;;;;;;8.47;100.00;102899.78;6218197;23;20005;-62
2021/12/15 05:42:27;;;;;;;59.17;26.17;;;;;;;8.48;100.00;102911.09;6218325;23;20417;-62
2021/12/15 05:44:53;;;;;;;58.53;26.52;;;;;;;8.52;100.00;102908.59;6218026;23;20009;-63
2021/12/15 05:47:20;;;;;;;56.53;24.88;;;;;;;8.50;100.00;102901.56;6217790;23;20295;-62
2021/12/15 05:49:46;;;;;;;57.20;24.55;;;;;;;8.54;100.00;102906.91;6218126;23;20351;-62
2021/12/15 05:52:12;;;;;;;54.25;24.80;;;;;;;8.66;100.00;102906.34;6218225;23;20008;-61
2021/12/15 05:54:37;;;;;;;58.53;25.30;;;;;;;8.51;100.00;102906.81;6217983;23;20379;-62
2021/12/15 05:57:03;;;;;;;56.53;25.42;;;;;;;8.55;100.00;102908.69;6218118;23;20011;-62
2021/12/15 05:59:29;;;;;;;56.53;25.33;;;;;;;8.51;100.00;102904.22;6217952;23;20008;-62
2021/12/15 06:01:54;;;;;;;57.45;25.00;;;;;;;8.45;100.00;102901.44;6218248;23;20014;-62
2021/12/15 06:04:20;;;;;;;58.33;25.77;;;;;;;8.43;100.00;102897.91;6217629;23;20015;-62
2021/12/15 06:06:46;;;;;;;61.38;27.23;;;;;;;8.51;100.00;102914.66;6217440;23;20012;-62
2021/12/15 06:09:12;;;;;;;60.72;26.30;;;;;;;8.46;100.00;102902.34;6217862;23;20000;-62
2021/12/15 06:11:38;;;;;;;63.17;26.67;;;;;;;8.44;100.00;102904.91;6217908;23;20016;-62
2021/12/15 06:14:05;;;;;;;64.72;28.20;;;;;;;8.44;100.00;102904.91;6217336;23;20395;-62
2021/12/15 06:16:30;;;;;;;63.42;27.58;;;;;;;8.52;100.00;102907.72;6217727;23;20067;-62
2021/12/15 06:18:56;;;;;;;64.75;28.77;;;;;;;8.45;100.00;102905.78;6217736;23;20096;-62
2021/12/15 06:21:22;;;;;;;65.72;28.45;;;;;;;8.37;100.00;102900.34;6218181;23;20005;-61
2021/12/15 06:23:48;;;;;;;65.65;28.38;;;;;;;8.50;100.00;102912.88;6217741;23;20075;-61
2021/12/15 06:26:15;;;;;;;64.25;26.92;;;;;;;8.55;100.00;102919.13;6217788;23;20067;-61
2021/12/15 06:28:40;;;;;;;66.88;28.30;;;;;;;8.48;100.00;102919.81;6217622;23;20075;-61
2021/12/15 06:31:08;;;;;;;65.82;28.10;;;;;;;8.49;100.00;102926.78;6217432;23;20410;-62
2021/12/15 06:33:35;;;;;;;65.40;28.52;;;;;;;8.47;100.00;102922.38;6218008;23;20032;-62
2021/12/15 06:36:03;;;;;;;64.32;27.67;;;;;;;8.48;100.00;102922.41;6217554;23;20008;-62
2021/12/15 06:38:31;;;;;;;69.30;28.90;;;;;;;8.52;100.00;102923.38;6217637;23;20008;-62
2021/12/15 06:40:58;;;;;;;65.72;28.60;;;;;;;8.55;100.00;102923.47;6217782;23;20074;-62
2021/12/15 06:43:25;;;;;;;65.15;28.00;;;;;;;8.48;100.00;102926.75;6217409;23;20032;-62
2021/12/15 06:46:01;;;;;;;68.72;29.58;;;;;;;8.45;100.00;102919.72;6217720;23;20008;-62
2021/12/15 06:59:23;;;;;;;72.70;30.63;;;;;;;8.58;100.00;102932.25;6217169;23;20086;-62
2021/12/15 07:01:50;;;;;;;72.20;29.15;;;;;;;8.51;100.00;102934.63;6217873;23;20012;-62
2021/12/15 07:04:18;;;;;;;72.15;29.73;;;;;;;8.45;100.00;102932.75;6217269;23;20087;-62
2021/12/15 07:06:43;;;;;;;74.20;29.90;;;;;;;8.44;100.00;102917.06;6217975;23;20294;-63
2021/12/15 07:09:08;;;;;;;69.85;29.45;;;;;;;8.49;100.00;102942.41;6217133;23;20000;-62
2021/12/15 07:11:33;;;;;;;72.72;29.83;;;;;;;8.51;100.00;102951.19;6217392;23;20343;-63
2021/12/15 07:13:59;;;;;;;75.57;30.30;;;;;;;8.52;100.00;102950.34;6217718;23;20087;-62
2021/12/15 07:16:25;;;;;;;73.38;28.58;;;;;;;8.49;100.00;102944.16;6216898;23;20008;-63
2021/12/15 07:19:06;;;;;;;70.43;29.70;;;;;;;8.52;100.00;102944.25;6217242;23;20005;-61
2021/12/15 07:21:36;;;;;;;68.10;27.27;;;;;;;8.62;100.00;102960.22;6217876;23;20338;-63
2021/12/15 07:24:02;;;;;;;76.32;29.92;;;;;;;8.51;100.00;102948.56;6217160;23;20332;-62
2021/12/15 07:26:28;;;;;;;76.13;30.38;;;;;;;8.57;100.00;102953.09;6217071;23;20058;-64
2021/12/15 07:28:53;;;;;;;74.35;29.80;;;;;;;8.52;100.00;102950.34;6217005;23;20005;-64
2021/12/15 07:31:19;;;;;;;75.25;30.02;;;;;;;8.49;100.00;102955.47;6217195;23;20004;-64
2021/12/15 07:33:45;;;;;;;74.88;30.08;;;;;;;8.52;100.00;102957.28;6217444;23;20082;-63
2021/12/15 07:36:11;;;;;;;79.68;29.85;;;;;;;8.53;100.00;102962.56;6217397;23;20394;-63
2021/12/15 07:38:41;;;;;;;74.13;30.05;;;;;;;8.53;100.00;102957.34;6217310;23;20047;-64
2021/12/15 07:41:25;;;;;;;80.53;31.83;;;;;;;8.49;100.00;102955.47;6217202;23;20024;-63
2021/12/15 07:43:53;;;;;;;75.68;30.33;;;;;;;8.54;100.00;102964.31;6217059;23;20016;-64
2021/12/15 07:46:19;;;;;;;78.97;31.50;;;;;;;8.51;100.00;102961.63;6217283;23;20008;-63
2021/12/15 07:48:44;;;;;;;76.65;30.17;;;;;;;8.55;100.00;102970.44;6217245;23;20467;-63
2021/12/15 07:51:11;;;;;;;79.32;31.75;;;;;;;8.55;100.00;102967.81;6217288;23;20414;-64
2021/12/15 07:53:40;;;;;;;76.90;30.00;;;;;;;8.55;100.00;102968.69;6216923;23;20110;-63
2021/12/15 07:56:05;;;;;;;76.22;31.70;;;;;;;8.59;100.00;102974.91;6216475;23;20390;-63
2021/12/15 07:58:31;;;;;;;79.53;32.28;;;;;;;8.58;100.00;102968.81;6218395;23;20067;-63
2021/12/15 08:00:59;;;;;;;81.25;32.78;;;;;;;8.56;100.00;102970.47;6219038;23;20005;-64
2021/12/15 08:03:25;;;;;;;77.85;31.25;;;;;;;8.57;100.00;102974.84;6219475;23;20011;-63
2021/12/15 08:05:52;;;;;;;78.05;31.98;;;;;;;8.65;100.00;102968.16;6219135;23;20043;-63
2021/12/15 08:08:17;;;;;;;82.25;32.58;;;;;;;8.57;100.00;102963.53;6219227;23;20015;-64
2021/12/15 08:10:43;;;;;;;80.07;32.28;;;;;;;8.56;100.00;102974.81;6219881;23;20005;-64
2021/12/15 08:13:10;;;;;;;82.88;32.83;;;;;;;8.60;100.00;102976.66;6218857;23;20059;-63
2021/12/15 08:15:35;;;;;;;83.40;33.75;;;;;;;8.58;100.00;102981.84;6218910;23;20005;-64
2021/12/15 08:18:01;;;;;;;81.75;32.50;;;;;;;8.64;100.00;102986.38;6219309;23;20005;-63
2021/12/15 08:20:29;;;;;;;81.40;32.35;;;;;;;8.63;100.00;102979.38;6218931;23;20433;-63
2021/12/15 08:22:54;;;;;;;80.30;33.45;;;;;;;8.69;100.00;102982.16;6219440;23;20004;-64
2021/12/15 08:25:20;;;;;;;83.78;33.42;;;;;;;8.68;100.00;102989.09;6219011;23;20035;-64
2021/12/15 08:27:48;;;;;;;84.90;33.40;;;;;;;8.66;100.00;102987.28;6218827;23;20020;-64
2021/12/15 08:30:20;;;;;;;83.95;33.88;;;;;;;8.68;100.00;102982.97;6218707;23;20424;-64
2021/12/15 08:32:50;;;;;;;86.00;33.75;;;;;;;8.65;100.00;102989.03;6218813;23;20012;-64
2021/12/15 08:35:17;;;;;;;82.80;32.65;;;;;;;8.60;100.00;102985.38;6218822;23;20036;-64
2021/12/15 08:37:42;;;;;;;85.95;34.17;;;;;;;8.67;100.00;102991.66;6218775;23;20035;-64
2021/12/15 08:40:08;;;;;;;78.55;33.03;;;;;;;8.63;100.00;102993.31;6218456;23;20393;-65
2021/12/15 08:42:33;;;;;;;82.45;32.95;;;;;;;8.65;100.00;102985.53;6218881;23;20048;-63
2021/12/15 08:44:59;;;;;;;83.07;33.05;;;;;;;8.69;100.00;102989.97;6218186;23;20004;-64
2021/12/15 08:47:24;;;;;;;82.72;34.00;;;;;;;8.66;100.00;102988.16;6218846;23;20468;-64
2021/12/15 08:49:50;;;;;;;76.78;33.25;;;;;;;8.68;100.00;102991.69;6217561;23;20113;-64
2021/12/15 08:52:15;;;;;;;73.75;31.45;;;;;;;8.69;100.00;102990.84;6218635;23;20330;-63
2021/12/15 08:54:40;;;;;;;84.53;34.20;;;;;;;8.67;100.00;102987.31;6218343;23;20008;-64
2021/12/15 08:57:07;;;;;;;81.00;32.88;;;;;;;8.73;100.00;102990.13;6218380;23;20313;-64
2021/12/15 08:59:33;;;;;;;87.80;34.30;;;;;;;8.75;100.00;102984.94;6218686;23;20015;-64
2021/12/15 09:01:58;;;;;;;78.35;33.03;;;;;;;8.81;100.00;102994.69;6218501;23;20008;-63
2021/12/15 09:04:24;;;;;;;80.35;33.90;;;;;;;8.77;100.00;102998.91;6218058;23;20314;-63
2021/12/15 09:06:50;;;;;;;77.85;33.15;;;;;;;8.86;100.00;103009.59;6218620;23;20000;-64
2021/12/15 09:09:20;;;;;;;77.47;33.28;;;;;;;8.79;100.00;102993.75;6218203;23;20008;-65
2021/12/15 09:11:46;;;;;;;77.78;32.92;;;;;;;8.82;100.00;102999.06;6218900;23;20005;-64
2021/12/15 09:14:12;;;;;;;79.45;33.75;;;;;;;8.80;100.00;103005.97;6218260;23;20008;-63
2021/12/15 09:16:40;;;;;;;78.72;33.88;;;;;;;8.83;100.00;103006.91;6218060;23;20402;-64
2021/12/15 09:19:06;;;;;;;78.47;33.13;;;;;;;8.83;100.00;103004.28;6218477;23;20008;-64
2021/12/15 09:21:33;;;;;;;76.40;33.08;;;;;;;8.89;100.00;103008.81;6218050;23;20008;-64
2021/12/15 09:24:01;;;;;;;73.57;32.65;;;;;;;8.89;100.00;103016.66;6218333;23;20040;-64
2021/12/15 09:26:27;;;;;;;77.88;32.50;;;;;;;8.91;100.00;103012.34;6218104;23;20031;-64
2021/12/15 09:28:52;;;;;;;74.88;32.35;;;;;;;8.95;100.00;103011.63;6218475;23;20013;-64
2021/12/15 09:31:18;;;;;;;72.47;31.42;;;;;;;8.95;100.00;103025.56;6218912;23;20062;-64
2021/12/15 09:33:46;;;;;;;77.70;34.28;;;;;;;8.95;100.00;103036.00;6217916;23;20058;-64
2021/12/15 09:36:14;;;;;;;74.65;33.15;;;;;;;8.87;100.00;103015.72;6218495;23;20005;-64
2021/12/15 09:38:41;;;;;;;74.97;33.05;;;;;;;8.95;100.00;103028.16;6218436;23;20001;-64
2021/12/15 09:41:10;;;;;;;71.00;32.00;;;;;;;9.06;100.00;103033.69;6218134;23;20008;-65
2021/12/15 09:43:36;;;;;;;74.75;31.83;;;;;;;9.03;100.00;103025.75;6217692;23;20042;-65
2021/12/15 09:46:13;;;;;;;74.55;32.80;;;;;;;9.05;100.00;103030.19;6218102;23;20022;-64
2021/12/15 10:12:27;;;;;;;68.10;32.90;;;;;;;9.35;100.00;103026.66;6218179;23;20019;-65
2021/12/15 10:18:10;;;;;;;72.18;33.63;;;;;;;9.41;100.00;103030.28;6217590;23;20082;-64
2021/12/15 10:20:39;;;;;;;68.50;33.13;;;;;;;9.51;100.00;103035.78;6218030;23;20005;-64
2021/12/15 10:23:08;;;;;;;71.70;33.60;;;;;;;9.49;100.00;103030.50;6217659;23;20008;-65
2021/12/15 10:25:38;;;;;;;68.53;32.40;;;;;;;9.49;100.00;103030.50;6217525;23;20382;-64
2021/12/15 10:28:21;;;;;;;69.13;34.47;;;;;;;9.58;100.00;103035.06;6217904;23;20013;-64
2021/12/15 10:30:53;;;;;;;66.10;34.47;;;;;;;9.65;100.00;103037.91;6217474;23;20386;-64
2021/12/15 10:33:21;;;;;;;;;;;;;;;9.76;100.00;103039.03;6217913;23;20005;-64
2021/12/15 10:35:54;;;;;;;66.70;32.70;;;;;;;9.67;100.00;103033.59;6217561;23;19911;-65
2021/12/15 10:38:44;;;;;;;70.72;34.83;;;;;;;9.67;100.00;103035.31;6217448;23;20398;-64
2021/12/15 10:41:17;;;;;;;66.32;34.13;;;;;;;9.66;100.00;103023.09;6217915;23;20043;-65
2021/12/15 10:43:47;;;;;;;67.68;34.20;;;;;;;9.68;100.00;103030.13;6217786;23;20004;-64
2021/12/15 10:46:20;;;;;;;64.32;33.83;;;;;;;9.68;100.00;103029.25;6217428;23;20036;-64
2021/12/15 10:49:05;;;;;;;69.10;34.40;;;;;;;9.73;100.00;103030.22;6217142;23;20484;-63
2021/12/15 10:51:39;;;;;;;68.28;36.33;;;;;;;9.70;100.00;103032.75;6217614;23;20016;-64
2021/12/15 10:54:20;;;;;;;66.07;34.90;;;;;;;9.70;100.00;103036.25;6217728;23;20004;-64
2021/12/15 10:56:54;;;;;;;68.07;35.10;;;;;;;9.78;100.00;103041.69;6217462;23;20013;-64
2021/12/15 10:59:22;;;;;;;70.22;34.67;;;;;;;9.70;100.00;103032.75;6217606;23;20023;-64
2021/12/15 11:01:50;;;;;;;69.78;35.85;;;;;;;9.60;100.00;103025.53;6217553;23;20009;-64
2021/12/15 11:04:48;;;;;;;69.38;36.15;;;;;;;9.75;100.00;103041.63;6216308;23;20455;-64
2021/12/15 11:07:21;;;;;;;69.30;35.03;;;;;;;9.75;100.00;103036.38;6215569;23;20005;-64
2021/12/15 11:10:26;;;;;;;75.07;35.22;;;;;;;9.85;100.00;103029.66;6216943;23;20001;-63
2021/12/15 11:12:57;;;;;;;70.32;35.30;;;;;;;9.66;100.00;103013.53;6217414;23;20055;-62
2021/12/15 11:15:30;;;;;;;69.28;35.25;;;;;;;9.85;100.00;103041.00;6216772;23;20456;-63
2021/12/15 11:17:59;;;;;;;69.97;35.25;;;;;;;9.80;100.00;103029.56;6217005;23;20008;-64
2021/12/15 11:20:29;;;;;;;68.80;35.35;;;;;;;9.90;100.00;103028.91;6217644;23;20012;-63
2021/12/15 11:23:06;;;;;;;68.93;35.35;;;;;;;9.87;100.00;103034.06;6217687;23;20000;-64
2021/12/15 11:25:34;;;;;;;67.85;34.92;;;;;;;9.87;100.00;103022.75;6217422;23;20001;-64
2021/12/15 11:28:02;;;;;;;66.88;32.83;;;;;;;9.94;100.00;103029.88;6217835;23;20015;-64
2021/12/15 11:30:36;;;;;;;65.82;33.97;;;;;;;9.94;100.00;103028.16;6217504;23;20016;-64
2021/12/15 11:33:20;;;;;;;61.17;33.35;;;;;;;10.08;100.00;103031.97;6219493;23;20001;-65
2021/12/15 11:36:05;;;;;;;65.80;34.00;;;;;;;10.07;100.00;103016.25;6219162;23;20000;-63
2021/12/15 11:38:40;;;;;;;63.90;34.58;;;;;;;10.01;100.00;103022.22;6219265;23;20000;-63
2021/12/15 11:41:12;;;;;;;62.85;34.15;;;;;;;10.03;100.00;103027.50;6219712;23;20028;-61
2021/12/15 11:43:43;;;;;;;66.07;34.70;;;;;;;10.04;100.00;103019.66;6219154;23;20251;-68
2021/12/15 11:46:19;;;;;;;63.00;34.33;;;;;;;10.07;100.00;103019.75;6219396;23;20008;-63
2021/12/15 11:48:54;;;;;;;57.55;32.45;;;;;;;10.09;100.00;103023.28;6219169;23;20012;-68
2021/12/15 11:51:34;;;;;;;60.00;32.35;;;;;;;10.10;100.00;103017.19;6219265;23;20004;-68
2021/12/15 11:54:00;;;;;;;57.58;32.15;;;;;;;10.12;100.00;103022.47;6219304;23;20005;-66
2021/12/15 11:56:34;;;;;;;59.90;32.60;;;;;;;10.12;100.00;103018.13;6215274;23;20390;-67
2021/12/15 11:59:16;;;;;;;57.88;32.42;;;;;;;10.15;100.00;103017.31;6217580;23;20314;-67
2021/12/15 12:01:56;;;;;;;57.25;32.95;;;;;;;10.15;100.00;103016.44;6218892;23;20005;-67
2021/12/15 12:04:25;;;;;;;58.25;31.23;;;;;;;10.18;100.00;103016.50;6217077;23;20326;-68
2021/12/15 12:06:55;;;;;;;55.72;32.00;;;;;;;10.16;100.00;103016.47;6218418;23;20449;-67
2021/12/15 12:09:22;;;;;;;55.08;31.23;;;;;;;10.11;100.00;103018.97;6218969;23;20008;-66
2021/12/15 12:11:54;;;;;;;52.85;30.48;;;;;;;10.06;100.00;103020.59;6218792;23;20306;-66
2021/12/15 12:14:38;;;;;;;57.42;32.22;;;;;;;10.08;100.00;103015.38;6219063;23;20091;-66
2021/12/15 12:17:08;;;;;;;60.50;32.20;;;;;;;10.11;100.00;103008.50;6219077;23;20040;-66
2021/12/15 12:19:34;;;;;;;53.97;30.15;;;;;;;10.20;100.00;103002.66;6219047;23;20290;-67
2021/12/15 12:22:02;;;;;;;52.00;30.55;;;;;;;10.16;100.00;102997.28;6218417;23;20004;-67